Forest Knolls, Pennsylvania
Current Conditions -  °F | °C
As of 12:53 AM on Sunday 26 Oct 2014 (Local Time) from KLNS Reporting Station
Overcast Overcast  
Wind Chill: 59°   Ceiling: 6500
Heat Index: 59°   Visibility: 10mi
Dew Point: 48°   Wind: 6mph
Humidity: 67%   Direction: 260°W
Pressure: 29.63"   Gusts: NA
Location:  40.0642°N, 76.4378°W
Report Text: KLNS 260453Z AUTO 26005KT 10SM OVC065 15/09 A2963 RMK AO2 RAB0359E03 SLP031 P0000 T01500089 402000056
Loading
Personal Weather Stations






























Interactive Weather Map
Tropical Storm Tracking
New forecast layout! Learn more

10-Day Weather Forecast

Advertisements
Track Severe Weather on mobile